Time,TemperatureF,DewpointF,PressureIn,WindDirection,WindDirectionDegrees,WindSpeedMPH,WindSpeedGustMPH,Humidity,HourlyPrecipIn,Conditions,Clouds,dailyrainin,SoftwareType,DateUTC
2013-11-01 00:03:00,32.4,28.4,30.32,NW,315,0.0,-999.0,85,0.00,,,0.00,Wunderground v.1.15,2013-11-01 07:03:00,
2013-11-01 00:08:00,32.4,28.4,30.32,NW,315,0.0,-999.0,85,0.00,,,0.00,Wunderground v.1.15,2013-11-01 07:08:00,
2013-11-01 00:13:00,32.4,28.4,30.32,NW,315,0.0,-999.0,85,0.00,,,0.00,Wunderground v.1.15,2013-11-01 07:13:00,
2013-11-01 00:18:00,32.4,28.4,30.32,NW,315,0.0,-999.0,85,0.00,,,0.00,Wunderground v.1.15,2013-11-01 07:18:00,
2013-11-01 00:23:00,32.4,28.4,30.32,NW,315,0.0,-999.0,85,0.00,,,0.00,Wunderground v.1.15,2013-11-01 07:23:00,
2013-11-01 00:28:00,32.4,28.4,30.32,NW,315,0.0,-999.0,85,0.00,,,0.00,Wunderground v.1.15,2013-11-01 07:28:00,
2013-11-01 00:33:00,32.4,28.4,30.32,NW,315,0.0,-999.0,85,0.00,,,0.00,Wunderground v.1.15,2013-11-01 07:33:00,
2013-11-01 00:38:00,32.4,28.4,30.32,NW,315,0.0,-999.0,85,0.00,,,0.00,Wunderground v.1.15,2013-11-01 07:38:00,
2013-11-01 00:43:00,32.4,28.4,30.32,NW,315,0.0,-999.0,85,0.00,,,0.00,Wunderground v.1.15,2013-11-01 07:43:00,
2013-11-01 00:48:00,31.7,27.7,30.32,NW,315,0.0,-999.0,85,0.00,,,0.00,Wunderground v.1.15,2013-11-01 07:48:00,
2013-11-01 00:53:00,31.7,27.7,30.32,NW,315,0.0,-999.0,85,0.00,,,0.00,Wunderground v.1.15,2013-11-01 07:53:00,
2013-11-01 00:58:00,31.7,27.7,30.32,NW,315,0.0,-999.0,85,0.00,,,0.00,Wunderground v.1.15,2013-11-01 07:58:00,
2013-11-01 01:03:00,31.7,27.7,30.32,NW,315,0.0,-999.0,85,0.00,,,0.00,Wunderground v.1.15,2013-11-01 08:03:00,
2013-11-01 01:08:00,31.7,27.7,30.32,NW,315,0.0,-999.0,85,0.00,,,0.00,Wunderground v.1.15,2013-11-01 08:08:00,
2013-11-01 01:13:00,31.7,27.7,30.32,NW,315,0.0,-999.0,85,0.00,,,0.00,Wunderground v.1.15,2013-11-01 08:13:00,
2013-11-01 01:18:00,31.6,27.9,30.33,NW,315,0.0,-999.0,86,0.00,,,0.00,Wunderground v.1.15,2013-11-01 08:18:00,
2013-11-01 01:23:00,31.6,27.9,30.33,NW,315,0.0,-999.0,86,0.00,,,0.00,Wunderground v.1.15,2013-11-01 08:23:00,
2013-11-01 01:28:00,31.6,27.9,30.33,NW,315,0.0,-999.0,86,0.00,,,0.00,Wunderground v.1.15,2013-11-01 08:28:00,
2013-11-01 01:33:00,31.6,27.9,30.33,NW,315,0.0,-999.0,86,0.00,,,0.00,Wunderground v.1.15,2013-11-01 08:33:00,
2013-11-01 01:38:00,31.6,27.9,30.33,NW,315,0.0,-999.0,86,0.00,,,0.00,Wunderground v.1.15,2013-11-01 08:38:00,
2013-11-01 01:43:00,31.6,27.9,30.33,NW,315,0.0,-999.0,86,0.00,,,0.00,Wunderground v.1.15,2013-11-01 08:43:00,
2013-11-01 01:48:00,30.6,26.9,30.33,N/A,-737280,0.0,-999.0,86,0.00,,,0.00,Wunderground v.1.15,2013-11-01 08:48:00,
2013-11-01 01:53:00,30.6,26.9,30.33,N/A,-737280,0.0,-999.0,86,0.00,,,0.00,Wunderground v.1.15,2013-11-01 08:53:00,
2013-11-01 01:58:00,30.6,26.9,30.33,N/A,-737280,0.0,-999.0,86,0.00,,,0.00,Wunderground v.1.15,2013-11-01 08:58:00,
2013-11-01 02:03:00,30.6,26.9,30.33,N/A,-737280,0.0,-999.0,86,0.00,,,0.00,Wunderground v.1.15,2013-11-01 09:03:00,
2013-11-01 02:08:00,30.6,26.9,30.33,N/A,-737280,0.0,-999.0,86,0.00,,,0.00,Wunderground v.1.15,2013-11-01 09:08:00,
2013-11-01 02:13:00,30.6,26.9,30.33,N/A,-737280,0.0,-999.0,86,0.00,,,0.00,Wunderground v.1.15,2013-11-01 09:13:00,
2013-11-01 02:18:00,30.1,26.4,30.33,N/A,-737280,0.0,-999.0,86,0.00,,,0.00,Wunderground v.1.15,2013-11-01 09:18:00,
2013-11-01 02:23:00,30.1,26.4,30.33,N/A,-737280,0.0,-999.0,86,0.00,,,0.00,Wunderground v.1.15,2013-11-01 09:23:00,
2013-11-01 02:28:00,30.1,26.4,30.33,N/A,-737280,0.0,-999.0,86,0.00,,,0.00,Wunderground v.1.15,2013-11-01 09:28:00,
2013-11-01 02:33:00,30.1,26.4,30.33,N/A,-737280,0.0,-999.0,86,0.00,,,0.00,Wunderground v.1.15,2013-11-01 09:33:00,
2013-11-01 02:38:00,30.1,26.4,30.33,N/A,-737280,0.0,-999.0,86,0.00,,,0.00,Wunderground v.1.15,2013-11-01 09:38:00,
2013-11-01 02:43:00,30.1,26.4,30.33,N/A,-737280,0.0,-999.0,86,0.00,,,0.00,Wunderground v.1.15,2013-11-01 09:43:00,
2013-11-01 02:48:00,29.3,25.6,30.33,N/A,-737280,0.0,-999.0,86,0.00,,,0.00,Wunderground v.1.15,2013-11-01 09:48:00,
2013-11-01 02:53:00,29.3,25.6,30.33,N/A,-737280,0.0,-999.0,86,0.00,,,0.00,Wunderground v.1.15,2013-11-01 09:53:00,
2013-11-01 02:58:00,29.3,25.6,30.33,N/A,-737280,0.0,-999.0,86,0.00,,,0.00,Wunderground v.1.15,2013-11-01 09:58:00,
2013-11-01 03:03:00,29.3,25.6,30.33,N/A,-737280,0.0,-999.0,86,0.00,,,0.00,Wunderground v.1.15,2013-11-01 10:03:00,
2013-11-01 03:08:00,29.3,25.6,30.33,N/A,-737280,0.0,-999.0,86,0.00,,,0.00,Wunderground v.1.15,2013-11-01 10:08:00,
2013-11-01 03:13:00,29.3,25.6,30.33,N/A,-737280,0.0,-999.0,86,0.00,,,0.00,Wunderground v.1.15,2013-11-01 10:13:00,
2013-11-01 03:18:00,29.4,25.7,30.33,N/A,-737280,0.0,-999.0,86,0.00,,,0.00,Wunderground v.1.15,2013-11-01 10:18:00,
2013-11-01 03:23:00,29.4,25.7,30.33,N/A,-737280,0.0,-999.0,86,0.00,,,0.00,Wunderground v.1.15,2013-11-01 10:23:00,
2013-11-01 03:28:00,29.4,25.7,30.33,N/A,-737280,0.0,-999.0,86,0.00,,,0.00,Wunderground v.1.15,2013-11-01 10:28:00,
2013-11-01 03:33:00,29.4,25.7,30.33,N/A,-737280,0.0,-999.0,86,0.00,,,0.00,Wunderground v.1.15,2013-11-01 10:33:00,
2013-11-01 03:38:00,29.4,25.7,30.33,N/A,-737280,0.0,-999.0,86,0.00,,,0.00,Wunderground v.1.15,2013-11-01 10:38:00,
2013-11-01 03:43:00,29.4,25.7,30.33,N/A,-737280,0.0,-999.0,86,0.00,,,0.00,Wunderground v.1.15,2013-11-01 10:43:00,
2013-11-01 03:48:00,28.8,25.1,30.32,N/A,-737280,0.0,-999.0,86,0.00,,,0.00,Wunderground v.1.15,2013-11-01 10:48:00,
2013-11-01 03:53:00,28.8,25.1,30.32,N/A,-737280,0.0,-999.0,86,0.00,,,0.00,Wunderground v.1.15,2013-11-01 10:53:00,
2013-11-01 03:58:00,28.8,25.1,30.32,N/A,-737280,0.0,-999.0,86,0.00,,,0.00,Wunderground v.1.15,2013-11-01 10:58:00,
2013-11-01 04:03:00,28.8,25.1,30.32,N/A,-737280,0.0,-999.0,86,0.00,,,0.00,Wunderground v.1.15,2013-11-01 11:03:00,
2013-11-01 04:08:00,28.8,25.1,30.32,N/A,-737280,0.0,-999.0,86,0.00,,,0.00,Wunderground v.1.15,2013-11-01 11:08:00,
2013-11-01 04:13:00,28.8,25.1,30.32,N/A,-737280,0.0,-999.0,86,0.00,,,0.00,Wunderground v.1.15,2013-11-01 11:13:00,
2013-11-01 04:18:00,28.7,25.3,30.32,N/A,-737280,0.0,-999.0,87,0.00,,,0.00,Wunderground v.1.15,2013-11-01 11:18:00,
2013-11-01 04:23:00,28.7,25.3,30.32,N/A,-737280,0.0,-999.0,87,0.00,,,0.00,Wunderground v.1.15,2013-11-01 11:23:00,
2013-11-01 04:28:00,28.7,25.3,30.32,N/A,-737280,0.0,-999.0,87,0.00,,,0.00,Wunderground v.1.15,2013-11-01 11:28:00,
2013-11-01 04:33:00,28.7,25.3,30.32,N/A,-737280,0.0,-999.0,87,0.00,,,0.00,Wunderground v.1.15,2013-11-01 11:33:00,
2013-11-01 04:38:00,28.7,25.3,30.32,N/A,-737280,0.0,-999.0,87,0.00,,,0.00,Wunderground v.1.15,2013-11-01 11:38:00,
2013-11-01 04:43:00,28.7,25.3,30.32,N/A,-737280,0.0,-999.0,87,0.00,,,0.00,Wunderground v.1.15,2013-11-01 11:43:00,
2013-11-01 04:48:00,28.8,25.4,30.32,N/A,-737280,0.0,-999.0,87,0.00,,,0.00,Wunderground v.1.15,2013-11-01 11:48:00,
2013-11-01 04:53:00,28.8,25.4,30.32,N/A,-737280,0.0,-999.0,87,0.00,,,0.00,Wunderground v.1.15,2013-11-01 11:53:00,
2013-11-01 04:58:00,28.8,25.4,30.32,N/A,-737280,0.0,-999.0,87,0.00,,,0.00,Wunderground v.1.15,2013-11-01 11:58:00,
2013-11-01 05:03:00,28.8,25.4,30.32,N/A,-737280,0.0,-999.0,87,0.00,,,0.00,Wunderground v.1.15,2013-11-01 12:03:00,
2013-11-01 05:08:00,28.8,25.4,30.32,N/A,-737280,0.0,-999.0,87,0.00,,,0.00,Wunderground v.1.15,2013-11-01 12:08:00,
2013-11-01 05:13:00,28.8,25.4,30.32,N/A,-737280,0.0,-999.0,87,0.00,,,0.00,Wunderground v.1.15,2013-11-01 12:13:00,
2013-11-01 05:18:00,28.4,25.0,30.33,WNW,293,0.0,-999.0,87,0.00,,,0.00,Wunderground v.1.15,2013-11-01 12:18:00,
2013-11-01 05:23:00,28.4,25.0,30.33,WNW,293,0.0,-999.0,87,0.00,,,0.00,Wunderground v.1.15,2013-11-01 12:23:00,
2013-11-01 05:28:00,28.4,25.0,30.33,WNW,293,0.0,-999.0,87,0.00,,,0.00,Wunderground v.1.15,2013-11-01 12:28:00,
2013-11-01 05:33:00,28.4,25.0,30.33,WNW,293,0.0,-999.0,87,0.00,,,0.00,Wunderground v.1.15,2013-11-01 12:33:00,
2013-11-01 05:38:00,28.4,25.0,30.33,WNW,293,0.0,-999.0,87,0.00,,,0.00,Wunderground v.1.15,2013-11-01 12:38:00,
2013-11-01 05:43:00,28.4,25.0,30.33,WNW,293,0.0,-999.0,87,0.00,,,0.00,Wunderground v.1.15,2013-11-01 12:43:00,
2013-11-01 05:48:00,27.6,24.2,30.33,N/A,-737280,0.0,-999.0,87,0.00,,,0.00,Wunderground v.1.15,2013-11-01 12:48:00,
2013-11-01 05:53:00,27.6,24.2,30.33,N/A,-737280,0.0,-999.0,87,0.00,,,0.00,Wunderground v.1.15,2013-11-01 12:53:00,
2013-11-01 05:58:00,27.6,24.2,30.33,N/A,-737280,0.0,-999.0,87,0.00,,,0.00,Wunderground v.1.15,2013-11-01 12:58:00,
2013-11-01 06:03:00,27.6,24.2,30.33,N/A,-737280,0.0,-999.0,87,0.00,,,0.00,Wunderground v.1.15,2013-11-01 13:03:00,
2013-11-01 06:08:00,27.6,24.2,30.33,N/A,-737280,0.0,-999.0,87,0.00,,,0.00,Wunderground v.1.15,2013-11-01 13:08:00,
2013-11-01 06:13:00,27.6,24.2,30.33,N/A,-737280,0.0,-999.0,87,0.00,,,0.00,Wunderground v.1.15,2013-11-01 13:13:00,
2013-11-01 06:18:00,26.7,23.4,30.33,N/A,-737280,0.0,-999.0,87,0.00,,,0.00,Wunderground v.1.15,2013-11-01 13:18:00,
2013-11-01 06:23:00,26.7,23.4,30.33,N/A,-737280,0.0,-999.0,87,0.00,,,0.00,Wunderground v.1.15,2013-11-01 13:23:00,
2013-11-01 06:28:00,26.7,23.4,30.33,N/A,-737280,0.0,-999.0,87,0.00,,,0.00,Wunderground v.1.15,2013-11-01 13:28:00,
2013-11-01 06:33:00,26.7,23.4,30.33,N/A,-737280,0.0,-999.0,87,0.00,,,0.00,Wunderground v.1.15,2013-11-01 13:33:00,
2013-11-01 06:38:00,26.7,23.4,30.33,N/A,-737280,0.0,-999.0,87,0.00,,,0.00,Wunderground v.1.15,2013-11-01 13:38:00,
2013-11-01 06:43:00,26.7,23.4,30.33,N/A,-737280,0.0,-999.0,87,0.00,,,0.00,Wunderground v.1.15,2013-11-01 13:43:00,
2013-11-01 06:48:00,27.1,23.7,30.33,N/A,-737280,0.0,-999.0,87,0.00,,,0.00,Wunderground v.1.15,2013-11-01 13:48:00,
2013-11-01 06:53:00,27.1,23.7,30.33,N/A,-737280,0.0,-999.0,87,0.00,,,0.00,Wunderground v.1.15,2013-11-01 13:53:00,
2013-11-01 06:58:00,27.1,23.7,30.33,N/A,-737280,0.0,-999.0,87,0.00,,,0.00,Wunderground v.1.15,2013-11-01 13:58:00,
2013-11-01 07:03:00,27.1,23.7,30.33,N/A,-737280,0.0,-999.0,87,0.00,,,0.00,Wunderground v.1.15,2013-11-01 14:03:00,
2013-11-01 07:08:00,27.1,23.7,30.33,N/A,-737280,0.0,-999.0,87,0.00,,,0.00,Wunderground v.1.15,2013-11-01 14:08:00,
2013-11-01 07:13:00,27.1,23.7,30.33,N/A,-737280,0.0,-999.0,87,0.00,,,0.00,Wunderground v.1.15,2013-11-01 14:13:00,
2013-11-01 07:18:00,28.3,24.9,30.33,WNW,293,0.0,-999.0,87,0.00,,,0.00,Wunderground v.1.15,2013-11-01 14:18:00,
2013-11-01 07:23:00,28.3,24.9,30.33,WNW,293,0.0,-999.0,87,0.00,,,0.00,Wunderground v.1.15,2013-11-01 14:23:00,
2013-11-01 07:28:00,28.3,24.9,30.33,WNW,293,0.0,-999.0,87,0.00,,,0.00,Wunderground v.1.15,2013-11-01 14:28:00,
2013-11-01 07:54:00,28.6,25.2,30.33,WNW,294,0.0,0.0,87,0.00,,,0.00,Wunderground v.1.15,2013-11-01 14:54:00,
2013-11-01 08:00:00,28.6,25.2,30.32,WNW,294,0.0,0.0,87,0.00,,,0.00,Wunderground v.1.15,2013-11-01 15:00:00,
2013-11-01 08:05:00,29.3,26.2,30.33,NNW,331,0.0,0.0,88,0.00,,,0.00,Wunderground v.1.15,2013-11-01 15:05:00,
2013-11-01 08:10:00,29.7,26.6,30.33,NW,319,0.0,0.0,88,0.00,,,0.00,Wunderground v.1.15,2013-11-01 15:10:00,
2013-11-01 08:15:00,29.4,26.3,30.33,NW,319,0.0,0.0,88,0.00,,,0.00,Wunderground v.1.15,2013-11-01 15:15:00,
2013-11-01 08:20:00,29.6,26.5,30.33,NW,319,0.0,0.0,88,0.00,,,0.00,Wunderground v.1.15,2013-11-01 15:20:00,
2013-11-01 08:25:00,29.6,26.5,30.33,NW,310,0.0,0.0,88,0.00,,,0.00,Wunderground v.1.15,2013-11-01 15:25:00,
2013-11-01 08:30:00,29.6,26.5,30.33,NW,308,0.0,0.0,88,0.00,,,0.00,Wunderground v.1.15,2013-11-01 15:30:00,
2013-11-01 08:40:00,29.9,26.8,30.34,NW,307,0.0,0.0,88,0.00,,,0.00,Wunderground v.1.15,2013-11-01 15:40:00,
2013-11-01 08:45:00,30.3,27.2,30.34,East,96,0.0,0.0,88,0.00,,,0.00,Wunderground v.1.15,2013-11-01 15:45:00,
2013-11-01 08:50:00,30.6,27.5,30.34,East,96,0.0,1.0,88,0.00,,,0.00,Wunderground v.1.15,2013-11-01 15:50:00,
2013-11-01 08:55:00,30.6,27.5,30.34,East,89,0.0,1.0,88,0.00,,,0.00,Wunderground v.1.15,2013-11-01 15:55:00,
2013-11-01 09:00:00,30.7,27.6,30.34,East,90,0.0,0.0,88,0.00,,,0.00,Wunderground v.1.15,2013-11-01 16:00:00,
2013-11-01 09:05:00,30.6,27.5,30.34,East,90,0.0,0.0,88,0.00,,,0.00,Wunderground v.1.15,2013-11-01 16:05:00,
2013-11-01 09:10:00,30.5,27.4,30.34,East,90,0.0,0.0,88,0.00,,,0.00,Wunderground v.1.15,2013-11-01 16:10:00,
2013-11-01 09:15:00,30.6,27.5,30.34,East,90,0.0,0.0,88,0.00,,,0.00,Wunderground v.1.15,2013-11-01 16:15:00,
2013-11-01 09:20:00,31.1,28.0,30.33,East,90,0.0,0.0,88,0.00,,,0.01,Wunderground v.1.15,2013-11-01 16:20:00,
2013-11-01 09:25:00,31.7,28.6,30.34,East,90,0.0,0.0,88,0.00,,,0.01,Wunderground v.1.15,2013-11-01 16:25:00,
2013-11-01 09:30:00,32.3,29.1,30.34,East,90,0.0,0.0,88,0.00,,,0.01,Wunderground v.1.15,2013-11-01 16:30:00,
2013-11-01 09:35:00,32.3,29.1,30.34,East,90,0.0,0.0,88,0.00,,,0.01,Wunderground v.1.15,2013-11-01 16:35:00,
2013-11-01 09:40:00,32.7,29.5,30.34,SE,125,0.0,0.0,88,0.00,,,0.01,Wunderground v.1.15,2013-11-01 16:40:00,
2013-11-01 09:45:00,33.5,30.3,30.34,SSE,149,0.0,0.0,88,0.00,,,0.01,Wunderground v.1.15,2013-11-01 16:45:00,
2013-11-01 09:50:00,34.2,31.3,30.34,SSE,149,1.0,1.0,89,0.00,,,0.01,Wunderground v.1.15,2013-11-01 16:50:00,
2013-11-01 09:55:00,35.2,32.3,30.33,SSE,155,1.0,1.0,89,0.00,,,0.01,Wunderground v.1.15,2013-11-01 16:55:00,
2013-11-01 10:00:00,35.1,32.2,30.33,SSE,150,1.0,2.0,89,0.00,,,0.01,Wunderground v.1.15,2013-11-01 17:00:00,
2013-11-01 10:05:00,35.5,32.6,30.33,SSE,159,2.0,2.0,89,0.00,,,0.01,Wunderground v.1.15,2013-11-01 17:05:00,
2013-11-01 10:10:00,35.9,33.0,30.33,South,172,2.0,3.0,89,0.00,,,0.01,Wunderground v.1.15,2013-11-01 17:10:00,
2013-11-01 10:15:00,36.0,33.1,30.33,SSW,211,3.0,3.0,89,0.00,,,0.01,Wunderground v.1.15,2013-11-01 17:15:00,
2013-11-01 10:20:00,36.5,33.6,30.33,ESE,102,3.0,3.0,89,0.00,,,0.01,Wunderground v.1.15,2013-11-01 17:20:00,
2013-11-01 10:25:00,36.7,33.8,30.33,South,178,3.0,3.0,89,0.00,,,0.01,Wunderground v.1.15,2013-11-01 17:25:00,
2013-11-01 10:30:00,37.4,34.5,30.33,SSW,194,3.0,3.0,89,0.00,,,0.01,Wunderground v.1.15,2013-11-01 17:30:00,
2013-11-01 10:35:00,38.2,35.2,30.32,East,86,3.0,3.0,89,0.00,,,0.01,Wunderground v.1.15,2013-11-01 17:35:00,
2013-11-01 10:40:00,38.3,35.3,30.32,East,101,3.0,4.0,89,0.00,,,0.01,Wunderground v.1.15,2013-11-01 17:40:00,
2013-11-01 10:45:00,38.7,35.7,30.32,SSE,160,4.0,5.0,89,0.00,,,0.01,Wunderground v.1.15,2013-11-01 17:45:00,
2013-11-01 10:50:00,39.6,36.6,30.32,SE,140,4.0,4.0,89,0.00,,,0.01,Wunderground v.1.15,2013-11-01 17:50:00,
2013-11-01 10:55:00,40.3,37.3,30.32,SSE,153,3.0,4.0,89,0.00,,,0.01,Wunderground v.1.15,2013-11-01 17:55:00,
2013-11-01 11:00:00,40.7,37.7,30.32,SE,134,3.0,3.0,89,0.00,,,0.01,Wunderground v.1.15,2013-11-01 18:00:00,
2013-11-01 11:05:00,41.2,38.2,30.32,SE,126,3.0,3.0,89,0.00,,,0.01,Wunderground v.1.15,2013-11-01 18:05:00,
2013-11-01 11:10:00,41.7,38.4,30.32,SE,130,3.0,3.0,88,0.00,,,0.01,Wunderground v.1.15,2013-11-01 18:10:00,
2013-11-01 11:15:00,42.2,38.0,30.32,SE,129,3.0,3.0,85,0.00,,,0.01,Wunderground v.1.15,2013-11-01 18:15:00,
2013-11-01 11:20:00,43.4,39.2,30.31,East,99,2.0,2.0,85,0.00,,,0.01,Wunderground v.1.15,2013-11-01 18:20:00,
2013-11-01 11:25:00,44.7,38.9,30.31,SE,130,2.0,3.0,80,0.00,,,0.01,Wunderground v.1.15,2013-11-01 18:25:00,
2013-11-01 11:30:00,45.2,39.1,30.31,SE,133,2.0,2.0,79,0.00,,,0.01,Wunderground v.1.15,2013-11-01 18:30:00,
2013-11-01 11:40:00,46.1,39.0,30.30,ESE,114,2.0,3.0,76,0.00,,,0.01,Wunderground v.1.15,2013-11-01 18:40:00,
2013-11-01 11:45:00,46.9,39.0,30.30,ENE,76,2.0,3.0,74,0.00,,,0.01,Wunderground v.1.15,2013-11-01 18:45:00,
2013-11-01 11:50:00,47.4,38.5,30.30,South,188,2.0,2.0,71,0.00,,,0.01,Wunderground v.1.15,2013-11-01 18:50:00,
2013-11-01 11:55:00,48.4,39.4,30.30,SE,128,2.0,2.0,71,0.00,,,0.01,Wunderground v.1.15,2013-11-01 18:55:00,
2013-11-01 12:00:00,48.7,37.8,30.30,South,169,2.0,2.0,66,0.00,,,0.01,Wunderground v.1.15,2013-11-01 19:00:00,
2013-11-01 12:05:00,49.2,38.3,30.29,SE,144,2.0,4.0,66,0.00,,,0.01,Wunderground v.1.15,2013-11-01 19:05:00,
2013-11-01 12:10:00,49.6,38.3,30.29,ESE,110,2.0,4.0,65,0.00,,,0.01,Wunderground v.1.15,2013-11-01 19:10:00,
2013-11-01 12:15:00,50.3,38.2,30.29,ESE,103,3.0,6.0,63,0.00,,,0.01,Wunderground v.1.15,2013-11-01 19:15:00,
2013-11-01 12:20:00,50.7,38.6,30.29,SSE,164,4.0,4.0,63,0.00,,,0.01,Wunderground v.1.15,2013-11-01 19:20:00,
2013-11-01 12:25:00,50.9,39.1,30.28,East,90,5.0,6.0,64,0.00,,,0.01,Wunderground v.1.15,2013-11-01 19:25:00,
2013-11-01 12:30:00,50.9,39.1,30.28,ESE,105,5.0,6.0,64,0.00,,,0.01,Wunderground v.1.15,2013-11-01 19:30:00,
2013-11-01 12:35:00,51.7,38.7,30.28,East,94,4.0,7.0,61,0.00,,,0.01,Wunderground v.1.15,2013-11-01 19:35:00,
2013-11-01 12:40:00,51.7,38.7,30.28,East,92,4.0,6.0,61,0.00,,,0.01,Wunderground v.1.15,2013-11-01 19:40:00,
2013-11-01 12:45:00,52.1,38.2,30.27,East,88,4.0,6.0,59,0.00,,,0.01,Wunderground v.1.15,2013-11-01 19:45:00,
2013-11-01 12:50:00,52.6,38.7,30.27,East,101,4.0,4.0,59,0.00,,,0.01,Wunderground v.1.15,2013-11-01 19:50:00,
2013-11-01 12:55:00,52.7,37.9,30.27,East,90,4.0,7.0,57,0.00,,,0.01,Wunderground v.1.15,2013-11-01 19:55:00,
2013-11-01 13:00:00,52.6,38.2,30.26,East,83,3.0,4.0,58,0.00,,,0.01,Wunderground v.1.15,2013-11-01 20:00:00,
2013-11-01 13:05:00,53.1,37.8,30.26,SE,137,3.0,4.0,56,0.00,,,0.01,Wunderground v.1.15,2013-11-01 20:05:00,
2013-11-01 13:10:00,53.5,38.6,30.26,ENE,78,3.0,3.0,57,0.00,,,0.01,Wunderground v.1.15,2013-11-01 20:10:00,
2013-11-01 13:15:00,54.6,39.2,30.26,ESE,117,3.0,6.0,56,0.00,,,0.01,Wunderground v.1.15,2013-11-01 20:15:00,
2013-11-01 13:20:00,54.6,39.2,30.26,East,98,2.0,3.0,56,0.00,,,0.01,Wunderground v.1.15,2013-11-01 20:20:00,
2013-11-01 13:25:00,54.2,37.4,30.25,East,92,3.0,3.0,53,0.00,,,0.01,Wunderground v.1.15,2013-11-01 20:25:00,
2013-11-01 13:30:00,54.8,38.5,30.25,East,90,3.0,3.0,54,0.00,,,0.01,Wunderground v.1.15,2013-11-01 20:30:00,
2013-11-01 13:35:00,55.1,37.8,30.24,East,86,3.0,3.0,52,0.00,,,0.01,Wunderground v.1.15,2013-11-01 20:35:00,
2013-11-01 13:40:00,55.5,37.7,30.24,East,96,3.0,3.0,51,0.00,,,0.01,Wunderground v.1.15,2013-11-01 20:40:00,
2013-11-01 13:45:00,55.1,37.8,30.24,ESE,110,3.0,4.0,52,0.00,,,0.01,Wunderground v.1.15,2013-11-01 20:45:00,
2013-11-01 13:50:00,55.3,38.9,30.23,East,85,4.0,4.0,54,0.00,,,0.01,Wunderground v.1.15,2013-11-01 20:50:00,
2013-11-01 13:55:00,55.3,37.5,30.23,NNE,33,4.0,4.0,51,0.00,,,0.01,Wunderground v.1.15,2013-11-01 20:55:00,
2013-11-01 14:00:00,55.8,38.4,30.23,East,94,2.0,6.0,52,0.00,,,0.01,Wunderground v.1.15,2013-11-01 21:00:00,
2013-11-01 14:05:00,55.9,38.0,30.23,ESE,116,2.0,6.0,51,0.00,,,0.01,Wunderground v.1.15,2013-11-01 21:05:00,
2013-11-01 14:10:00,56.1,37.7,30.22,East,88,2.0,2.0,50,0.00,,,0.01,Wunderground v.1.15,2013-11-01 21:10:00,
2013-11-01 14:15:00,56.8,38.9,30.22,East,92,2.0,2.0,51,0.00,,,0.01,Wunderground v.1.15,2013-11-01 21:15:00,
2013-11-01 14:20:00,56.5,37.6,30.22,NW,314,2.0,2.0,49,0.00,,,0.01,Wunderground v.1.15,2013-11-01 21:20:00,
2013-11-01 14:25:00,56.7,36.7,30.22,NW,309,1.0,2.0,47,0.00,,,0.01,Wunderground v.1.15,2013-11-01 21:25:00,
2013-11-01 14:30:00,57.0,38.0,30.21,WNW,296,1.0,4.0,49,0.00,,,0.01,Wunderground v.1.15,2013-11-01 21:30:00,
2013-11-01 14:35:00,57.8,38.2,30.21,SW,214,1.0,4.0,48,0.00,,,0.01,Wunderground v.1.15,2013-11-01 21:35:00,
2013-11-01 14:40:00,58.4,36.6,30.21,SSW,193,2.0,2.0,44,0.00,,,0.01,Wunderground v.1.15,2013-11-01 21:40:00,
2013-11-01 14:45:00,58.2,35.8,30.21,WSW,241,2.0,2.0,43,0.00,,,0.01,Wunderground v.1.15,2013-11-01 21:45:00,
2013-11-01 14:50:00,58.1,36.9,30.21,WSW,240,2.0,2.0,45,0.00,,,0.01,Wunderground v.1.15,2013-11-01 21:50:00,
2013-11-01 14:55:00,57.9,36.1,30.21,WSW,239,1.0,2.0,44,0.00,,,0.01,Wunderground v.1.15,2013-11-01 21:55:00,
2013-11-01 15:00:00,58.5,36.6,30.21,WSW,239,1.0,3.0,44,0.00,,,0.01,Wunderground v.1.15,2013-11-01 22:00:00,
2013-11-01 15:05:00,59.0,37.7,30.20,SE,142,1.0,3.0,45,0.00,,,0.01,Wunderground v.1.15,2013-11-01 22:05:00,
2013-11-01 15:10:00,58.6,36.7,30.20,SSE,156,1.0,1.0,44,0.00,,,0.01,Wunderground v.1.15,2013-11-01 22:10:00,
2013-11-01 15:15:00,58.7,36.8,30.20,East,92,1.0,1.0,44,0.00,,,0.01,Wunderground v.1.15,2013-11-01 22:15:00,
2013-11-01 15:25:00,58.6,36.2,30.19,SSW,200,1.0,2.0,43,0.00,,,0.01,Wunderground v.1.15,2013-11-01 22:25:00,
2013-11-01 15:30:00,58.6,36.7,30.19,SE,130,1.0,2.0,44,0.00,,,0.01,Wunderground v.1.15,2013-11-01 22:30:00,
2013-11-01 15:35:00,59.0,36.5,30.19,ESE,122,0.0,2.0,43,0.00,,,0.01,Wunderground v.1.15,2013-11-01 22:35:00,
2013-11-01 15:40:00,59.0,36.5,30.19,SE,124,1.0,2.0,43,0.00,,,0.01,Wunderground v.1.15,2013-11-01 22:40:00,
2013-11-01 15:45:00,58.8,36.3,30.19,SE,128,2.0,2.0,43,0.00,,,0.01,Wunderground v.1.15,2013-11-01 22:45:00,
2013-11-01 15:50:00,58.6,36.7,30.19,SE,126,1.0,1.0,44,0.00,,,0.01,Wunderground v.1.15,2013-11-01 22:50:00,
2013-11-01 15:55:00,59.0,37.1,30.19,ESE,115,1.0,2.0,44,0.00,,,0.01,Wunderground v.1.15,2013-11-01 22:55:00,
2013-11-01 16:00:00,59.4,36.3,30.19,ESE,107,2.0,2.0,42,0.00,,,0.01,Wunderground v.1.15,2013-11-01 23:00:00,
2013-11-01 16:05:00,59.2,36.7,30.19,ESE,106,2.0,3.0,43,0.00,,,0.01,Wunderground v.1.15,2013-11-01 23:05:00,
2013-11-01 16:10:00,59.1,36.6,30.18,SE,132,2.0,4.0,43,0.00,,,0.01,Wunderground v.1.15,2013-11-01 23:10:00,
2013-11-01 16:15:00,59.3,36.2,30.18,SSE,154,2.0,4.0,42,0.00,,,0.01,Wunderground v.1.15,2013-11-01 23:15:00,
2013-11-01 16:20:00,59.2,36.7,30.18,SSE,161,1.0,1.0,43,0.00,,,0.01,Wunderground v.1.15,2013-11-01 23:20:00,
2013-11-01 16:25:00,59.0,36.5,30.18,SE,140,0.0,1.0,43,0.00,,,0.01,Wunderground v.1.15,2013-11-01 23:25:00,
2013-11-01 16:30:00,59.0,36.5,30.18,SW,219,1.0,1.0,43,0.00,,,0.01,Wunderground v.1.15,2013-11-01 23:30:00,
2013-11-01 16:35:00,59.0,36.5,30.17,SSE,149,1.0,1.0,43,0.00,,,0.01,Wunderground v.1.15,2013-11-01 23:35:00,
2013-11-01 16:40:00,58.6,36.2,30.17,SSE,168,1.0,1.0,43,0.00,,,0.01,Wunderground v.1.15,2013-11-01 23:40:00,
2013-11-01 16:45:00,58.5,36.1,30.17,SSE,148,1.0,1.0,43,0.00,,,0.01,Wunderground v.1.15,2013-11-01 23:45:00,
2013-11-01 16:50:00,58.0,36.2,30.17,South,180,1.0,1.0,44,0.00,,,0.01,Wunderground v.1.15,2013-11-01 23:50:00,
2013-11-01 16:55:00,57.6,35.8,30.17,SSE,166,1.0,1.0,44,0.00,,,0.01,Wunderground v.1.15,2013-11-01 23:55:00,
2013-11-01 17:05:00,56.1,35.6,30.17,ENE,69,0.0,0.0,46,0.00,,,0.01,Wunderground v.1.15,2013-11-02 00:05:00,
2013-11-01 17:10:00,55.6,35.7,30.17,ENE,59,0.0,0.0,47,0.00,,,0.01,Wunderground v.1.15,2013-11-02 00:10:00,
2013-11-01 17:15:00,55.2,35.8,30.17,ENE,59,0.0,0.0,48,0.00,,,0.01,Wunderground v.1.15,2013-11-02 00:15:00,
2013-11-01 17:20:00,53.9,36.2,30.17,ENE,59,0.0,0.0,51,0.00,,,0.01,Wunderground v.1.15,2013-11-02 00:20:00,
2013-11-01 17:25:00,52.4,36.7,30.16,ENE,59,0.0,0.0,55,0.00,,,0.01,Wunderground v.1.15,2013-11-02 00:25:00,
2013-11-01 17:30:00,51.3,36.6,30.16,ENE,59,0.0,0.0,57,0.00,,,0.01,Wunderground v.1.15,2013-11-02 00:30:00,
2013-11-01 17:35:00,50.5,36.3,30.16,ENE,59,0.0,0.0,58,0.00,,,0.01,Wunderground v.1.15,2013-11-02 00:35:00,
2013-11-01 17:40:00,50.0,36.2,30.16,ENE,59,0.0,0.0,59,0.00,,,0.01,Wunderground v.1.15,2013-11-02 00:40:00,
2013-11-01 17:45:00,49.0,36.1,30.16,ENE,59,0.0,0.0,61,0.00,,,0.01,Wunderground v.1.15,2013-11-02 00:45:00,
2013-11-01 17:55:00,47.4,35.8,30.16,ENE,59,0.0,0.0,64,0.00,,,0.01,Wunderground v.1.15,2013-11-02 00:55:00,
2013-11-01 18:00:00,46.6,35.5,30.16,ENE,59,0.0,0.0,65,0.00,,,0.01,Wunderground v.1.15,2013-11-02 01:00:00,
2013-11-01 18:05:00,46.1,35.0,30.15,ENE,59,0.0,0.0,65,0.00,,,0.01,Wunderground v.1.15,2013-11-02 01:05:00,
2013-11-01 18:10:00,45.6,34.9,30.15,ENE,59,0.0,0.0,66,0.00,,,0.01,Wunderground v.1.15,2013-11-02 01:10:00,
2013-11-01 18:15:00,44.7,34.4,30.15,ENE,59,0.0,0.0,67,0.00,,,0.01,Wunderground v.1.15,2013-11-02 01:15:00,
2013-11-01 18:20:00,43.5,33.6,30.15,ENE,59,0.0,0.0,68,0.00,,,0.01,Wunderground v.1.15,2013-11-02 01:20:00,
2013-11-01 18:25:00,42.6,33.1,30.15,ENE,59,0.0,0.0,69,0.00,,,0.01,Wunderground v.1.15,2013-11-02 01:25:00,
2013-11-01 18:30:00,41.9,32.8,30.15,ENE,59,0.0,0.0,70,0.00,,,0.01,Wunderground v.1.15,2013-11-02 01:30:00,
2013-11-01 18:35:00,41.3,32.2,30.15,ENE,59,0.0,0.0,70,0.00,,,0.01,Wunderground v.1.15,2013-11-02 01:35:00,
2013-11-01 18:40:00,40.6,32.3,30.15,ENE,59,0.0,0.0,72,0.00,,,0.01,Wunderground v.1.15,2013-11-02 01:40:00,
2013-11-01 18:45:00,40.4,32.4,30.16,ENE,59,0.0,0.0,73,0.00,,,0.01,Wunderground v.1.15,2013-11-02 01:45:00,
2013-11-01 18:50:00,40.1,32.1,30.16,ENE,59,0.0,0.0,73,0.00,,,0.01,Wunderground v.1.15,2013-11-02 01:50:00,
2013-11-01 18:55:00,40.0,31.7,30.16,ENE,59,0.0,0.0,72,0.00,,,0.01,Wunderground v.1.15,2013-11-02 01:55:00,
2013-11-01 19:00:00,39.7,31.4,30.16,ENE,59,0.0,0.0,72,0.00,,,0.01,Wunderground v.1.15,2013-11-02 02:00:00,
2013-11-01 19:05:00,39.4,31.5,30.16,ENE,59,0.0,0.0,73,0.00,,,0.01,Wunderground v.1.15,2013-11-02 02:05:00,
2013-11-01 19:10:00,39.3,31.4,30.16,ENE,59,0.0,0.0,73,0.00,,,0.01,Wunderground v.1.15,2013-11-02 02:10:00,
2013-11-01 19:15:00,38.7,31.1,30.16,ENE,59,0.0,0.0,74,0.00,,,0.01,Wunderground v.1.15,2013-11-02 02:15:00,
2013-11-01 19:20:00,38.8,31.2,30.16,ENE,59,0.0,0.0,74,0.00,,,0.01,Wunderground v.1.15,2013-11-02 02:20:00,
2013-11-01 19:25:00,38.7,31.1,30.16,ENE,59,0.0,3.0,74,0.00,,,0.01,Wunderground v.1.15,2013-11-02 02:25:00,
2013-11-01 19:30:00,38.3,30.4,30.16,ENE,59,0.0,0.0,73,0.00,,,0.01,Wunderground v.1.15,2013-11-02 02:30:00,
2013-11-01 19:35:00,37.7,29.8,30.16,ENE,59,1.0,1.0,73,0.00,,,0.01,Wunderground v.1.15,2013-11-02 02:35:00,
2013-11-01 19:40:00,37.4,29.5,30.16,ENE,59,1.0,1.0,73,0.00,,,0.01,Wunderground v.1.15,2013-11-02 02:40:00,
2013-11-01 19:45:00,37.4,29.9,30.16,ENE,59,0.0,1.0,74,0.00,,,0.01,Wunderground v.1.15,2013-11-02 02:45:00,
2013-11-01 19:50:00,37.1,29.2,30.16,ENE,59,0.0,0.0,73,0.00,,,0.01,Wunderground v.1.15,2013-11-02 02:50:00,
2013-11-01 19:55:00,37.0,29.5,30.16,ENE,59,0.0,0.0,74,0.00,,,0.01,Wunderground v.1.15,2013-11-02 02:55:00,
2013-11-01 20:00:00,36.8,29.0,30.16,ENE,59,0.0,0.0,73,0.00,,,0.01,Wunderground v.1.15,2013-11-02 03:00:00,
2013-11-01 20:05:00,36.7,29.2,30.15,ENE,59,0.0,0.0,74,0.00,,,0.01,Wunderground v.1.15,2013-11-02 03:05:00,
2013-11-01 20:10:00,36.9,29.4,30.15,ENE,59,0.0,0.0,74,0.00,,,0.01,Wunderground v.1.15,2013-11-02 03:10:00,
2013-11-01 20:15:00,36.7,29.2,30.15,ENE,59,0.0,0.0,74,0.00,,,0.01,Wunderground v.1.15,2013-11-02 03:15:00,
2013-11-01 20:20:00,36.5,29.3,30.15,ENE,59,0.0,0.0,75,0.00,,,0.01,Wunderground v.1.15,2013-11-02 03:20:00,
2013-11-01 20:25:00,36.4,29.2,30.14,ENE,59,0.0,0.0,75,0.00,,,0.01,Wunderground v.1.15,2013-11-02 03:25:00,
2013-11-01 20:30:00,36.1,28.6,30.14,ENE,59,0.0,0.0,74,0.00,,,0.01,Wunderground v.1.15,2013-11-02 03:30:00,
2013-11-01 20:35:00,36.1,28.9,30.14,ENE,59,0.0,0.0,75,0.00,,,0.01,Wunderground v.1.15,2013-11-02 03:35:00,
2013-11-01 20:40:00,36.2,29.0,30.14,ENE,59,0.0,0.0,75,0.00,,,0.01,Wunderground v.1.15,2013-11-02 03:40:00,
2013-11-01 20:45:00,35.9,28.7,30.14,ENE,59,0.0,0.0,75,0.00,,,0.01,Wunderground v.1.15,2013-11-02 03:45:00,
2013-11-01 20:50:00,35.6,28.8,30.14,ENE,59,0.0,0.0,76,0.00,,,0.01,Wunderground v.1.15,2013-11-02 03:50:00,
2013-11-01 20:55:00,35.6,29.4,30.14,ENE,68,0.0,-999.0,78,0.00,,,0.01,Wunderground v.1.15,2013-11-02 03:55:00,
2013-11-01 21:00:00,35.6,29.4,30.14,ENE,68,0.0,-999.0,78,0.00,,,0.01,Wunderground v.1.15,2013-11-02 04:00:00,
2013-11-01 21:05:00,35.6,29.4,30.14,ENE,68,0.0,-999.0,78,0.00,,,0.01,Wunderground v.1.15,2013-11-02 04:05:00,
2013-11-01 21:10:00,35.6,29.4,30.14,ENE,68,0.0,-999.0,78,0.00,,,0.01,Wunderground v.1.15,2013-11-02 04:10:00,
2013-11-01 21:15:00,35.7,29.8,30.15,ENE,68,0.0,-999.0,79,0.00,,,0.01,Wunderground v.1.15,2013-11-02 04:15:00,
2013-11-01 21:20:00,35.7,29.8,30.15,ENE,68,0.0,-999.0,79,0.00,,,0.01,Wunderground v.1.15,2013-11-02 04:20:00,
2013-11-01 21:25:00,35.7,29.8,30.15,ENE,68,0.0,-999.0,79,0.00,,,0.01,Wunderground v.1.15,2013-11-02 04:25:00,
2013-11-01 21:30:00,35.7,29.8,30.15,ENE,68,0.0,-999.0,79,0.00,,,0.01,Wunderground v.1.15,2013-11-02 04:30:00,
2013-11-01 21:35:00,35.7,29.8,30.15,ENE,68,0.0,-999.0,79,0.00,,,0.01,Wunderground v.1.15,2013-11-02 04:35:00,
2013-11-01 21:40:00,35.7,29.8,30.15,ENE,68,0.0,-999.0,79,0.00,,,0.01,Wunderground v.1.15,2013-11-02 04:40:00,
2013-11-01 21:45:00,35.5,29.9,30.15,ENE,68,0.0,-999.0,80,0.00,,,0.01,Wunderground v.1.15,2013-11-02 04:45:00,
2013-11-01 21:50:00,35.5,29.9,30.15,ENE,68,0.0,-999.0,80,0.00,,,0.01,Wunderground v.1.15,2013-11-02 04:50:00,
2013-11-01 21:55:00,35.5,29.9,30.15,ENE,68,0.0,-999.0,80,0.00,,,0.01,Wunderground v.1.15,2013-11-02 04:55:00,
2013-11-01 22:00:00,35.5,29.9,30.15,ENE,68,0.0,-999.0,80,0.00,,,0.01,Wunderground v.1.15,2013-11-02 05:00:00,
2013-11-01 22:05:00,35.5,29.9,30.15,ENE,68,0.0,-999.0,80,0.00,,,0.01,Wunderground v.1.15,2013-11-02 05:05:00,
2013-11-01 22:10:00,35.5,29.9,30.15,ENE,68,0.0,-999.0,80,0.00,,,0.01,Wunderground v.1.15,2013-11-02 05:10:00,
2013-11-01 22:15:00,35.5,29.9,30.14,N/A,-737280,0.0,-999.0,80,0.00,,,0.01,Wunderground v.1.15,2013-11-02 05:15:00,
2013-11-01 22:20:00,35.5,29.9,30.14,N/A,-737280,0.0,-999.0,80,0.00,,,0.01,Wunderground v.1.15,2013-11-02 05:20:00,
2013-11-01 22:25:00,35.5,29.9,30.14,N/A,-737280,0.0,-999.0,80,0.00,,,0.01,Wunderground v.1.15,2013-11-02 05:25:00,
2013-11-01 22:30:00,35.5,29.9,30.14,N/A,-737280,0.0,-999.0,80,0.00,,,0.01,Wunderground v.1.15,2013-11-02 05:30:00,
2013-11-01 22:35:00,35.5,29.9,30.14,N/A,-737280,0.0,-999.0,80,0.00,,,0.01,Wunderground v.1.15,2013-11-02 05:35:00,
2013-11-01 22:40:00,35.5,29.9,30.14,N/A,-737280,0.0,-999.0,80,0.00,,,0.01,Wunderground v.1.15,2013-11-02 05:40:00,
2013-11-01 22:45:00,35.3,30.4,30.14,ESE,113,1.0,-999.0,82,0.00,,,0.01,Wunderground v.1.15,2013-11-02 05:45:00,
2013-11-01 22:50:00,35.3,30.4,30.14,ESE,113,1.0,-999.0,82,0.00,,,0.01,Wunderground v.1.15,2013-11-02 05:50:00,
2013-11-01 22:55:00,35.3,30.4,30.14,ESE,113,1.0,-999.0,82,0.00,,,0.01,Wunderground v.1.15,2013-11-02 05:55:00,
2013-11-01 23:00:00,35.3,30.4,30.14,ESE,113,1.0,-999.0,82,0.00,,,0.01,Wunderground v.1.15,2013-11-02 06:00:00,
2013-11-01 23:05:00,35.3,30.4,30.14,ESE,113,1.0,-999.0,82,0.00,,,0.01,Wunderground v.1.15,2013-11-02 06:05:00,
2013-11-01 23:10:00,35.3,30.4,30.14,ESE,113,1.0,-999.0,82,0.00,,,0.01,Wunderground v.1.15,2013-11-02 06:10:00,
2013-11-01 23:15:00,33.8,28.3,30.14,SW,225,0.0,-999.0,80,0.00,,,0.01,Wunderground v.1.15,2013-11-02 06:15:00,
2013-11-01 23:20:00,33.8,28.3,30.14,SW,225,0.0,-999.0,80,0.00,,,0.01,Wunderground v.1.15,2013-11-02 06:20:00,
2013-11-01 23:25:00,33.8,28.3,30.14,SW,225,0.0,-999.0,80,0.00,,,0.01,Wunderground v.1.15,2013-11-02 06:25:00,
2013-11-01 23:30:00,33.8,28.3,30.14,SW,225,0.0,-999.0,80,0.00,,,0.01,Wunderground v.1.15,2013-11-02 06:30:00,
2013-11-01 23:35:00,33.8,28.3,30.14,SW,225,0.0,-999.0,80,0.00,,,0.01,Wunderground v.1.15,2013-11-02 06:35:00,
2013-11-01 23:40:00,33.8,28.3,30.14,SW,225,0.0,-999.0,80,0.00,,,0.01,Wunderground v.1.15,2013-11-02 06:40:00,
2013-11-01 23:45:00,32.7,27.8,30.13,SW,225,0.0,-999.0,82,0.00,,,0.01,Wunderground v.1.15,2013-11-02 06:45:00,
2013-11-01 23:50:00,32.7,27.8,30.13,SW,225,0.0,-999.0,82,0.00,,,0.01,Wunderground v.1.15,2013-11-02 06:50:00,
2013-11-01 23:55:00,32.7,27.8,30.13,SW,225,0.0,-999.0,82,0.00,,,0.01,Wunderground v.1.15,2013-11-02 06:55:00,